Time;durP1;ratioP1;P1;durP2;ratioP2;P2;SDS_P1;SDS_P2;PMS_P1;PMS_P2;Temp;Humidity;BMP_temperature;BMP_pressure;BME280_temperature;BME280_humidity;BME280_pressure;Samples;Min_cycle;Max_cycle;Signal;HPM_P1;HPM_P2
2023/05/23 00:00:22;;;;;;;16.90;12.68;;;15.40;99.90;;;;;;5078962;28;20616;-88
2023/05/23 00:03:02;;;;;;;18.65;12.77;;;15.40;99.90;;;;;;5080731;28;20233;-88
2023/05/23 00:05:29;;;;;;;17.15;12.32;;;15.40;99.90;;;;;;5082032;28;20287;-88
2023/05/23 00:08:01;;;;;;;16.73;11.95;;;15.20;99.90;;;;;;5088733;28;20626;-88
2023/05/23 00:10:28;;;;;;;19.17;13.35;;;15.30;99.90;;;;;;5091171;28;20692;-88
2023/05/23 00:13:04;;;;;;;17.70;12.57;;;15.20;99.90;;;;;;5091440;28;20284;-87
2023/05/23 00:15:32;;;;;;;17.40;12.60;;;15.20;99.90;;;;;;5093437;28;20204;-88
2023/05/23 00:18:17;;;;;;;19.00;12.52;;;15.10;99.90;;;;;;5091724;28;20209;-89
2023/05/23 00:20:50;;;;;;;16.95;12.38;;;15.10;99.90;;;;;;5093460;28;20226;-89
2023/05/23 00:23:20;;;;;;;17.73;13.05;;;15.10;99.90;;;;;;5091648;28;20202;-88
2023/05/23 00:25:51;;;;;;;18.40;13.40;;;15.20;99.90;;;;;;5089848;28;20197;-89
2023/05/23 00:31:02;;;;;;;20.80;13.52;;;15.20;99.90;;;;;;5078148;28;20239;-88
2023/05/23 00:33:33;;;;;;;19.23;13.45;;;15.20;99.90;;;;;;5081798;28;20194;-88
2023/05/23 00:36:08;;;;;;;17.83;13.50;;;15.30;99.90;;;;;;5086638;28;20209;-89
2023/05/23 00:38:37;;;;;;;20.25;15.13;;;15.30;99.90;;;;;;5091646;28;20428;-89
2023/05/23 00:41:19;;;;;;;19.50;13.77;;;15.40;99.90;;;;;;5076985;28;20269;-88
2023/05/23 00:43:46;;;;;;;21.83;13.82;;;15.40;99.90;;;;;;5072997;28;20225;-89
2023/05/23 00:46:16;;;;;;;21.02;14.52;;;15.40;99.90;;;;;;5087991;28;20205;-89
2023/05/23 00:48:43;;;;;;;19.80;13.88;;;15.60;99.90;;;;;;5091258;28;20205;-89
2023/05/23 00:51:13;;;;;;;18.00;13.40;;;15.60;99.90;;;;;;5086910;28;20675;-89
2023/05/23 00:53:42;;;;;;;19.85;14.20;;;15.50;99.90;;;;;;5091397;28;20273;-89
2023/05/23 00:56:11;;;;;;;20.98;14.40;;;15.80;99.90;;;;;;5091694;28;20281;-89
2023/05/23 00:58:40;;;;;;;22.15;14.65;;;15.70;99.90;;;;;;5080249;28;20619;-89
2023/05/23 01:01:15;;;;;;;21.05;14.52;;;15.60;99.90;;;;;;5080914;28;20214;-88
2023/05/23 01:03:44;;;;;;;20.70;15.02;;;15.70;99.90;;;;;;5081566;28;20223;-88
2023/05/23 01:06:11;;;;;;;25.45;17.17;;;15.70;99.90;;;;;;5075176;28;20259;-89
2023/05/23 01:08:42;;;;;;;24.25;17.50;;;15.70;99.90;;;;;;5071772;28;20296;-88
2023/05/23 01:11:39;;;;;;;32.53;22.58;;;15.70;99.90;;;;;;5078887;28;20754;-88
2023/05/23 01:14:25;;;;;;;36.50;25.05;;;15.50;99.90;;;;;;5080153;28;20216;-87
2023/05/23 01:17:33;;;;;;;38.85;28.73;;;15.60;99.90;;;;;;5073847;28;20597;-89
2023/05/23 01:20:23;;;;;;;45.05;34.70;;;15.60;99.90;;;;;;5079828;28;20228;-89
2023/05/23 01:23:11;;;;;;;45.38;33.80;;;15.30;99.90;;;;;;5079035;28;20217;-88
2023/05/23 01:26:18;;;;;;;43.10;32.92;;;15.40;99.90;;;;;;5092696;28;20236;-87
2023/05/23 01:29:21;;;;;;;47.78;37.38;;;15.30;99.90;;;;;;5091907;28;20210;-88
2023/05/23 01:32:14;;;;;;;45.58;34.25;;;15.00;99.90;;;;;;5031303;28;20229;-88
2023/05/23 01:34:57;;;;;;;43.30;33.22;;;15.10;99.90;;;;;;5091694;28;20210;-88
2023/05/23 01:37:45;;;;;;;41.70;33.10;;;15.00;99.90;;;;;;5092400;28;20560;-88
2023/05/23 01:40:33;;;;;;;45.13;33.42;;;15.00;99.90;;;;;;5095916;28;20202;-89
2023/05/23 01:43:09;;;;;;;40.85;30.50;;;15.10;99.90;;;;;;5094814;28;20225;-88
2023/05/23 01:45:36;;;;;;;44.30;30.88;;;14.90;99.90;;;;;;5088921;28;20206;-87
2023/05/23 01:48:12;;;;;;;39.58;30.85;;;14.90;99.90;;;;;;5081477;28;20622;-88
2023/05/23 01:50:51;;;;;;;38.35;29.40;;;14.90;99.90;;;;;;5088124;28;20197;-89
2023/05/23 01:56:12;;;;;;;38.20;28.20;;;14.80;99.90;;;;;;5081151;28;20208;-88
2023/05/23 02:01:55;;;;;;;36.83;26.15;;;14.70;99.90;;;;;;5088678;28;20226;-88
2023/05/23 02:04:32;;;;;;;36.10;26.65;;;14.50;99.90;;;;;;5088051;28;20285;-87
2023/05/23 02:12:49;;;;;;;30.00;20.43;;;14.40;99.90;;;;;;5018961;28;20577;-90
2023/05/23 02:15:18;;;;;;;32.10;22.00;;;14.40;99.90;;;;;;5078227;28;20674;-88
2023/05/23 02:18:05;;;;;;;28.15;20.45;;;14.50;99.90;;;;;;5085119;28;20647;-88
2023/05/23 02:20:44;;;;;;;25.88;18.85;;;14.50;99.90;;;;;;5083477;28;20209;-87
2023/05/23 02:26:19;;;;;;;23.15;16.65;;;14.30;99.90;;;;;;5091443;28;20200;-87
2023/05/23 02:28:59;;;;;;;21.45;15.23;;;14.30;99.90;;;;;;5074818;28;20206;-88
2023/05/23 02:37:15;;;;;;;22.83;15.70;;;14.20;99.90;;;;;;5087083;28;20646;-88
2023/05/23 02:40:06;;;;;;;22.90;14.90;;;14.30;99.90;;;;;;5094713;28;20671;-89
2023/05/23 02:50:16;;;;;;;20.38;14.25;;;14.20;99.90;;;;;;4933077;29;20209;-91
2023/05/23 02:52:44;;;;;;;21.40;14.80;;;14.20;99.90;;;;;;5105186;22;20605;-79
2023/05/23 02:55:11;;;;;;;20.10;14.37;;;14.10;99.90;;;;;;5099776;28;20216;-78
2023/05/23 02:57:37;;;;;;;22.17;15.27;;;14.10;99.90;;;;;;5097271;28;20198;-77
2023/05/23 03:00:05;;;;;;;19.83;13.32;;;14.10;99.90;;;;;;5099396;28;20208;-79
2023/05/23 03:02:32;;;;;;;20.53;14.10;;;14.00;99.90;;;;;;5091985;28;20217;-78
2023/05/23 03:04:59;;;;;;;22.93;14.00;;;14.00;99.90;;;;;;5085494;28;20222;-79
2023/05/23 03:07:26;;;;;;;19.97;13.67;;;14.10;99.90;;;;;;5093004;28;20269;-77
2023/05/23 03:09:54;;;;;;;20.97;14.70;;;14.00;99.90;;;;;;5097475;28;20201;-78
2023/05/23 03:12:20;;;;;;;21.52;14.00;;;14.00;99.90;;;;;;5092915;28;20198;-78
2023/05/23 03:14:47;;;;;;;21.00;13.63;;;13.80;99.90;;;;;;5088509;28;20232;-77
2023/05/23 03:17:14;;;;;;;20.70;13.70;;;13.80;99.90;;;;;;5089211;28;20205;-78
2023/05/23 03:19:41;;;;;;;22.00;14.53;;;13.80;99.90;;;;;;5095649;28;20198;-79
2023/05/23 03:22:08;;;;;;;22.70;14.47;;;13.80;99.90;;;;;;5099683;28;20581;-78
2023/05/23 03:24:35;;;;;;;20.67;13.60;;;13.80;99.90;;;;;;5097213;28;20225;-79
2023/05/23 03:27:03;;;;;;;19.57;12.97;;;13.80;99.90;;;;;;5097663;28;20285;-80
2023/05/23 03:29:31;;;;;;;20.57;13.20;;;13.80;99.90;;;;;;5088519;28;20732;-78
2023/05/23 03:31:58;;;;;;;22.40;13.27;;;13.90;99.90;;;;;;5096422;28;20567;-80
2023/05/23 03:34:25;;;;;;;18.30;12.50;;;13.90;99.90;;;;;;5088179;28;20228;-78
2023/05/23 03:36:52;;;;;;;20.47;13.77;;;14.00;99.90;;;;;;5095576;28;20236;-80
2023/05/23 03:39:18;;;;;;;21.37;14.40;;;14.00;99.90;;;;;;5094762;28;20567;-79
2023/05/23 03:41:46;;;;;;;21.80;13.77;;;14.00;99.90;;;;;;5084650;28;20210;-78
2023/05/23 03:44:14;;;;;;;20.63;13.70;;;14.00;99.90;;;;;;5091797;28;20229;-78
2023/05/23 03:46:41;;;;;;;18.45;12.65;;;14.10;99.90;;;;;;5088241;28;20214;-82
2023/05/23 03:49:08;;;;;;;18.43;12.83;;;14.10;99.90;;;;;;5096838;28;20273;-79
2023/05/23 03:51:34;;;;;;;19.80;13.43;;;14.00;99.90;;;;;;5097996;28;20221;-78
2023/05/23 03:54:01;;;;;;;19.80;14.07;;;14.10;99.90;;;;;;5080220;28;20785;-78
2023/05/23 03:56:28;;;;;;;21.17;12.87;;;14.00;99.90;;;;;;5097630;28;20579;-77
2023/05/23 03:58:55;;;;;;;20.90;14.23;;;14.00;99.90;;;;;;5096447;28;20216;-79
2023/05/23 04:01:23;;;;;;;21.87;14.57;;;13.90;99.90;;;;;;5094749;28;20215;-78
2023/05/23 04:03:51;;;;;;;22.70;15.57;;;13.80;99.90;;;;;;5094930;28;20704;-77
2023/05/23 04:06:19;;;;;;;22.93;14.60;;;13.90;99.90;;;;;;5089591;28;20210;-77
2023/05/23 04:08:46;;;;;;;22.40;14.50;;;13.90;99.90;;;;;;5093036;28;20201;-78
2023/05/23 04:11:12;;;;;;;21.50;13.77;;;13.80;99.90;;;;;;5083080;28;20260;-76
2023/05/23 04:13:39;;;;;;;19.57;13.23;;;13.80;99.90;;;;;;5096147;28;20223;-77
2023/05/23 04:16:07;;;;;;;17.37;12.03;;;13.70;99.90;;;;;;5096217;28;20384;-79
2023/05/23 04:18:37;;;;;;;19.45;12.63;;;13.70;99.90;;;;;;5096715;28;20661;-78
2023/05/23 04:21:04;;;;;;;20.13;12.27;;;13.70;99.90;;;;;;5096922;28;20416;-79
2023/05/23 04:23:31;;;;;;;16.50;11.17;;;13.60;99.90;;;;;;5095847;28;20286;-77
2023/05/23 04:25:58;;;;;;;17.83;10.63;;;13.60;99.90;;;;;;5088804;28;20681;-79
2023/05/23 04:28:26;;;;;;;15.60;9.33;;;13.60;99.90;;;;;;5084796;28;20202;-78
2023/05/23 04:30:53;;;;;;;13.57;9.07;;;13.70;99.90;;;;;;5089383;28;20206;-77
2023/05/23 04:33:20;;;;;;;15.10;9.00;;;13.70;99.90;;;;;;5096688;28;20245;-80
2023/05/23 04:35:49;;;;;;;15.10;8.73;;;13.80;99.90;;;;;;5097313;28;20217;-80
2023/05/23 04:38:16;;;;;;;16.47;9.40;;;13.80;99.90;;;;;;5097983;28;20209;-78
2023/05/23 04:40:42;;;;;;;14.30;8.83;;;13.90;99.90;;;;;;5096172;28;20273;-78
2023/05/23 04:43:13;;;;;;;13.50;8.20;;;13.90;99.90;;;;;;5084628;28;20222;-78
2023/05/23 04:45:40;;;;;;;13.13;9.03;;;13.90;99.90;;;;;;5079231;28;20210;-78
2023/05/23 04:48:07;;;;;;;15.93;8.87;;;14.00;99.90;;;;;;5092625;28;20527;-79
2023/05/23 04:50:34;;;;;;;16.00;9.90;;;14.00;99.90;;;;;;5096795;28;20288;-79
2023/05/23 04:53:03;;;;;;;17.77;10.60;;;14.00;99.90;;;;;;5096816;28;20284;-80
2023/05/23 04:55:29;;;;;;;15.37;9.93;;;14.10;99.90;;;;;;5085253;28;20209;-79
2023/05/23 04:57:56;;;;;;;14.98;8.68;;;14.10;99.90;;;;;;5088344;28;20208;-78
2023/05/23 05:00:23;;;;;;;15.25;9.25;;;14.00;99.90;;;;;;5089098;28;20642;-78
2023/05/23 05:02:52;;;;;;;12.13;7.63;;;14.10;99.90;;;;;;5097443;28;20404;-78
2023/05/23 05:05:18;;;;;;;10.55;7.35;;;14.10;99.90;;;;;;5098448;28;20210;-78
2023/05/23 05:07:45;;;;;;;12.03;7.43;;;14.10;99.90;;;;;;5096274;28;20202;-79
2023/05/23 05:10:15;;;;;;;8.70;6.20;;;14.10;99.90;;;;;;5090773;28;20212;-77
2023/05/23 05:12:42;;;;;;;14.30;6.60;;;14.10;99.90;;;;;;5088280;28;20204;-77
2023/05/23 05:15:10;;;;;;;11.85;6.90;;;14.20;99.90;;;;;;5087791;28;20218;-78
2023/05/23 05:17:37;;;;;;;9.57;6.40;;;14.10;99.90;;;;;;5096796;28;20205;-78
2023/05/23 05:20:07;;;;;;;10.60;7.07;;;14.20;99.90;;;;;;5099095;28;20233;-81
2023/05/23 05:22:34;;;;;;;10.73;6.85;;;14.20;99.90;;;;;;5098832;28;20243;-81
2023/05/23 05:25:02;;;;;;;10.23;7.53;;;14.10;99.90;;;;;;5098484;28;20229;-80
2023/05/23 05:27:30;;;;;;;11.82;7.70;;;14.10;99.90;;;;;;5099431;28;20201;-77
2023/05/23 05:30:03;;;;;;;14.85;8.20;;;14.10;99.90;;;;;;5098994;28;20220;-78
2023/05/23 05:32:30;;;;;;;13.02;7.80;;;14.10;99.90;;;;;;5099785;28;20202;-78
2023/05/23 05:34:58;;;;;;;14.67;8.77;;;14.00;99.90;;;;;;5092116;28;20229;-79
2023/05/23 05:37:24;;;;;;;12.47;7.80;;;14.00;99.90;;;;;;5101025;28;20657;-80
2023/05/23 05:39:52;;;;;;;12.60;7.93;;;14.00;99.90;;;;;;5099045;28;20209;-78
2023/05/23 05:42:20;;;;;;;12.77;7.33;;;13.90;99.90;;;;;;5098820;28;20282;-78
2023/05/23 05:44:48;;;;;;;13.30;8.13;;;13.90;99.90;;;;;;5100641;28;20230;-77
2023/05/23 05:47:15;;;;;;;11.53;7.97;;;13.90;99.90;;;;;;5099679;28;20740;-77
2023/05/23 05:49:42;;;;;;;14.53;8.40;;;13.90;99.90;;;;;;5098765;28;20219;-78
2023/05/23 05:52:09;;;;;;;14.77;8.20;;;13.80;99.90;;;;;;5089174;28;20643;-78
2023/05/23 05:54:36;;;;;;;13.83;8.63;;;13.80;99.90;;;;;;5097983;28;20701;-78
2023/05/23 05:57:03;;;;;;;13.90;8.73;;;13.80;99.90;;;;;;5097622;28;20212;-77
2023/05/23 05:59:30;;;;;;;14.03;8.50;;;13.80;99.90;;;;;;5096912;28;20258;-78
2023/05/23 06:01:58;;;;;;;14.80;8.38;;;13.70;99.90;;;;;;5088679;28;20209;-77
2023/05/23 06:04:25;;;;;;;12.60;8.37;;;13.80;99.90;;;;;;5097082;28;20222;-77
2023/05/23 06:06:51;;;;;;;13.48;8.57;;;13.80;99.90;;;;;;5097050;28;20684;-77
2023/05/23 06:09:21;;;;;;;13.57;8.07;;;13.70;99.90;;;;;;5088025;28;20204;-79
2023/05/23 06:11:48;;;;;;;13.63;8.67;;;13.60;99.90;;;;;;5096003;28;20569;-79
2023/05/23 06:14:15;;;;;;;11.57;7.30;;;13.80;99.90;;;;;;5094586;28;20684;-78
2023/05/23 06:16:41;;;;;;;11.45;7.90;;;13.70;99.90;;;;;;5080645;28;20252;-78
2023/05/23 06:19:09;;;;;;;10.60;7.43;;;13.70;99.90;;;;;;5091890;28;20210;-79
2023/05/23 06:21:36;;;;;;;11.50;7.80;;;13.70;99.90;;;;;;5098339;28;20661;-79
2023/05/23 06:24:03;;;;;;;10.43;7.13;;;13.60;99.90;;;;;;5098196;28;20836;-79
2023/05/23 06:26:30;;;;;;;12.00;7.47;;;13.70;99.90;;;;;;5100143;28;20673;-78
2023/05/23 06:28:57;;;;;;;10.10;7.23;;;13.70;99.90;;;;;;5099383;28;20205;-78
2023/05/23 06:31:23;;;;;;;11.57;7.27;;;13.70;99.90;;;;;;5099460;28;20202;-77
2023/05/23 06:33:50;;;;;;;11.17;6.63;;;13.60;99.90;;;;;;5099649;28;20601;-77
2023/05/23 06:36:19;;;;;;;8.77;6.80;;;13.60;99.90;;;;;;5101237;28;20688;-79
2023/05/23 06:38:47;;;;;;;11.67;7.10;;;13.50;99.90;;;;;;5100272;28;20658;-76
2023/05/23 06:41:14;;;;;;;12.50;7.57;;;13.60;99.90;;;;;;5094227;28;20208;-77
2023/05/23 06:43:40;;;;;;;9.87;6.73;;;13.70;99.90;;;;;;5100713;28;20757;-77
2023/05/23 06:46:07;;;;;;;10.10;7.10;;;13.60;99.90;;;;;;5101063;28;20289;-77
2023/05/23 06:48:34;;;;;;;10.77;7.13;;;13.60;99.90;;;;;;5100029;28;20233;-78
2023/05/23 06:51:01;;;;;;;11.27;7.83;;;13.70;99.90;;;;;;5090353;28;20213;-77
2023/05/23 06:53:29;;;;;;;11.37;8.37;;;13.60;99.90;;;;;;5099057;28;20221;-79
2023/05/23 06:55:56;;;;;;;13.23;8.47;;;13.60;99.90;;;;;;5098916;28;20212;-80
2023/05/23 06:58:25;;;;;;;10.23;7.90;;;13.70;99.90;;;;;;5098094;28;20216;-79
2023/05/23 07:00:52;;;;;;;12.67;8.67;;;13.70;99.90;;;;;;5170967;22;20312;-79
2023/05/23 07:03:19;;;;;;;11.43;8.20;;;13.60;99.90;;;;;;5096681;28;20380;-79
2023/05/23 07:05:46;;;;;;;14.37;9.00;;;13.60;99.90;;;;;;5078907;28;20705;-79
2023/05/23 07:08:12;;;;;;;12.23;8.00;;;13.60;99.90;;;;;;5073983;28;20206;-79
2023/05/23 07:10:40;;;;;;;11.73;8.10;;;13.50;99.90;;;;;;5073821;28;20210;-80
2023/05/23 07:13:07;;;;;;;11.10;7.33;;;13.50;99.90;;;;;;5081723;28;20286;-79
2023/05/23 07:15:34;;;;;;;20.40;9.07;;;13.60;99.90;;;;;;5078184;28;20198;-80
2023/05/23 07:18:01;;;;;;;11.70;7.80;;;13.40;99.90;;;;;;5079583;28;20218;-79
2023/05/23 07:20:28;;;;;;;10.67;7.90;;;13.50;99.90;;;;;;5074089;28;20295;-79
2023/05/23 07:22:56;;;;;;;11.90;8.37;;;13.50;99.90;;;;;;5076798;28;20652;-79
2023/05/23 07:25:23;;;;;;;11.87;8.33;;;13.40;99.90;;;;;;5074109;28;20198;-79
2023/05/23 07:27:53;;;;;;;11.43;7.83;;;13.30;99.90;;;;;;5074500;28;20217;-79
2023/05/23 07:30:21;;;;;;;11.57;8.00;;;13.20;99.90;;;;;;5073713;28;20723;-78
2023/05/23 07:32:48;;;;;;;12.37;8.37;;;13.20;99.90;;;;;;5074195;28;20198;-79
2023/05/23 07:35:15;;;;;;;12.80;8.43;;;13.20;99.90;;;;;;5072657;28;20198;-78
2023/05/23 07:37:42;;;;;;;13.53;8.50;;;13.10;99.90;;;;;;5083362;28;20590;-79
2023/05/23 07:40:09;;;;;;;14.07;8.77;;;13.20;99.90;;;;;;5082978;28;20240;-78
2023/05/23 07:42:36;;;;;;;11.50;7.77;;;13.10;99.90;;;;;;5073794;28;20569;-78
2023/05/23 07:45:05;;;;;;;13.57;7.70;;;13.10;99.90;;;;;;5078728;28;20228;-78
2023/05/23 07:47:32;;;;;;;12.47;8.00;;;13.00;99.90;;;;;;5074012;28;20198;-80
2023/05/23 07:50:01;;;;;;;12.43;7.57;;;13.10;99.90;;;;;;5092893;28;20205;-79
2023/05/23 07:52:28;;;;;;;11.10;7.63;;;13.00;99.90;;;;;;5094098;28;20205;-78
2023/05/23 07:54:55;;;;;;;11.37;7.43;;;13.00;99.90;;;;;;5094532;28;20218;-78
2023/05/23 07:57:23;;;;;;;11.47;7.70;;;13.10;99.90;;;;;;5089867;28;20206;-79
2023/05/23 07:59:50;;;;;;;13.10;8.83;;;13.00;99.90;;;;;;5090600;28;20205;-79
2023/05/23 08:02:18;;;;;;;11.23;7.77;;;13.10;99.90;;;;;;5089259;28;20657;-78
2023/05/23 08:04:45;;;;;;;10.83;7.37;;;13.10;99.90;;;;;;5087015;28;20230;-79
2023/05/23 08:07:15;;;;;;;10.93;7.73;;;13.10;99.90;;;;;;5073918;28;20203;-79
2023/05/23 08:09:42;;;;;;;9.93;7.60;;;13.10;99.90;;;;;;5073855;28;20243;-78
2023/05/23 08:12:09;;;;;;;10.03;7.03;;;13.10;99.90;;;;;;5080814;28;20210;-78
2023/05/23 08:14:36;;;;;;;8.40;6.37;;;13.10;99.90;;;;;;5079851;28;20218;-79
2023/05/23 08:17:03;;;;;;;8.20;6.40;;;13.00;99.90;;;;;;5085200;28;20596;-78
2023/05/23 08:19:31;;;;;;;9.67;7.07;;;13.00;99.90;;;;;;5088276;28;20225;-78
2023/05/23 08:21:58;;;;;;;10.97;7.30;;;13.00;99.90;;;;;;5080747;28;20218;-78
2023/05/23 08:24:25;;;;;;;10.80;7.37;;;12.80;99.90;;;;;;5082234;28;20221;-78
2023/05/23 08:26:52;;;;;;;11.03;7.80;;;12.80;99.90;;;;;;5073640;28;20234;-77
2023/05/23 08:29:19;;;;;;;12.70;7.93;;;12.80;99.90;;;;;;5089753;28;20288;-78
2023/05/23 08:31:46;;;;;;;9.97;7.57;;;12.60;99.90;;;;;;5072835;28;20204;-78
2023/05/23 08:34:13;;;;;;;10.73;7.47;;;12.70;99.90;;;;;;5089834;28;20745;-78
2023/05/23 08:36:41;;;;;;;12.23;8.70;;;12.80;99.90;;;;;;5081220;28;20203;-78
2023/05/23 08:39:08;;;;;;;12.43;8.27;;;12.70;99.90;;;;;;5089832;28;20201;-79
2023/05/23 08:41:36;;;;;;;11.83;7.77;;;12.70;99.90;;;;;;5087338;28;20198;-79
2023/05/23 08:44:03;;;;;;;12.03;8.20;;;12.60;99.90;;;;;;5084795;28;20229;-80
2023/05/23 08:46:31;;;;;;;9.93;7.23;;;12.60;99.90;;;;;;5079533;28;20688;-78
2023/05/23 08:48:59;;;;;;;12.50;7.60;;;12.50;99.90;;;;;;5081662;28;20199;-79
2023/05/23 08:51:27;;;;;;;12.77;8.50;;;12.40;99.90;;;;;;5092754;28;20653;-79
2023/05/23 08:53:57;;;;;;;13.97;8.67;;;12.40;99.90;;;;;;5083111;28;20210;-80
2023/05/23 08:56:27;;;;;;;18.83;10.43;;;12.40;99.90;;;;;;5081250;28;20202;-79
2023/05/23 08:58:55;;;;;;;16.57;9.80;;;12.30;99.90;;;;;;5089365;28;20717;-80
2023/05/23 09:01:23;;;;;;;16.70;9.57;;;12.20;99.90;;;;;;5085263;28;20289;-78
2023/05/23 09:03:51;;;;;;;18.80;9.97;;;12.20;99.90;;;;;;5076358;28;20708;-78
2023/05/23 09:06:20;;;;;;;15.47;9.03;;;12.30;99.90;;;;;;5075290;28;20288;-79
2023/05/23 09:08:47;;;;;;;20.00;11.00;;;12.40;99.90;;;;;;5084708;28;20194;-78
2023/05/23 09:11:15;;;;;;;18.13;8.67;;;12.30;99.90;;;;;;5084263;28;20198;-79
2023/05/23 09:13:42;;;;;;;14.53;7.57;;;12.30;99.90;;;;;;5083829;28;20248;-79
2023/05/23 09:16:11;;;;;;;10.67;6.63;;;12.20;99.90;;;;;;5082050;28;20226;-80
2023/05/23 09:18:39;;;;;;;11.37;6.13;;;12.20;99.90;;;;;;5072830;28;20568;-80
2023/05/23 09:21:07;;;;;;;9.63;6.07;;;12.10;99.90;;;;;;5074547;28;20194;-78
2023/05/23 09:23:35;;;;;;;13.43;5.97;;;12.00;99.90;;;;;;5084132;28;20485;-80
2023/05/23 09:26:03;;;;;;;11.17;6.00;;;12.00;99.90;;;;;;5092499;28;20278;-79
2023/05/23 09:28:33;;;;;;;12.60;6.00;;;12.00;99.90;;;;;;5093202;28;20201;-80
2023/05/23 09:31:00;;;;;;;9.47;5.53;;;12.00;99.90;;;;;;5092312;28;20194;-80
2023/05/23 09:33:36;;;;;;;8.33;5.33;;;12.10;99.90;;;;;;5092100;28;20237;-79
2023/05/23 09:36:04;;;;;;;12.87;5.40;;;12.00;99.90;;;;;;5091996;28;20648;-78
2023/05/23 09:38:31;;;;;;;11.70;5.30;;;11.80;99.90;;;;;;5072910;28;20264;-80
2023/05/23 09:40:59;;;;;;;9.73;5.13;;;11.90;99.90;;;;;;5072130;28;20216;-78
2023/05/23 09:43:28;;;;;;;14.13;6.30;;;11.80;99.90;;;;;;5086297;28;20222;-79
2023/05/23 09:46:01;;;;;;;10.23;4.97;;;11.80;99.90;;;;;;5087074;28;20515;-79
2023/05/23 09:48:31;;;;;;;13.53;5.90;;;11.90;99.90;;;;;;5086489;28;20231;-79
2023/05/23 09:50:57;;;;;;;10.57;5.23;;;11.80;99.90;;;;;;5075907;28;20221;-79
2023/05/23 09:53:25;;;;;;;7.23;5.03;;;11.80;99.90;;;;;;5083686;28;20231;-79
2023/05/23 09:55:53;;;;;;;9.63;5.33;;;11.70;99.90;;;;;;5091641;28;20582;-78
2023/05/23 09:58:23;;;;;;;9.70;5.10;;;11.50;99.90;;;;;;5083405;28;20204;-78
2023/05/23 10:00:53;;;;;;;12.43;6.10;;;11.60;99.90;;;;;;5095922;28;20338;-82
2023/05/23 10:03:24;;;;;;;13.93;6.07;;;11.50;99.90;;;;;;5083627;28;20807;-79
2023/05/23 10:05:57;;;;;;;11.53;5.10;;;11.50;99.90;;;;;;5084323;28;20309;-80
2023/05/23 10:08:28;;;;;;;12.60;5.90;;;11.50;99.90;;;;;;5075920;28;20209;-80
2023/05/23 10:11:31;;;;;;;11.93;5.73;;;11.70;99.90;;;;;;5098990;22;20726;-80
2023/05/23 10:14:01;;;;;;;16.67;7.73;;;11.60;99.90;;;;;;5104228;28;20220;-79
2023/05/23 10:16:34;;;;;;;10.87;6.60;;;11.50;99.90;;;;;;5117778;28;20201;-79
2023/05/23 10:19:07;;;;;;;13.40;7.13;;;11.60;99.90;;;;;;5116200;28;20228;-80
2023/05/23 10:21:40;;;;;;;14.07;7.40;;;11.50;99.90;;;;;;5115855;28;20224;-81
2023/05/23 10:24:08;;;;;;;10.30;6.10;;;11.50;99.90;;;;;;5111776;28;20221;-79
2023/05/23 10:26:35;;;;;;;9.87;6.17;;;11.50;99.90;;;;;;5115897;28;20603;-79
2023/05/23 10:29:04;;;;;;;9.83;4.90;;;11.60;99.90;;;;;;5115237;28;20197;-79
2023/05/23 10:31:31;;;;;;;8.30;4.87;;;11.60;99.90;;;;;;5111187;28;20202;-79
2023/05/23 10:34:08;;;;;;;9.10;5.03;;;11.60;99.90;;;;;;5111486;28;20216;-78
2023/05/23 10:36:43;;;;;;;10.93;5.73;;;11.60;99.90;;;;;;5115940;28;20200;-79
2023/05/23 10:39:16;;;;;;;6.83;4.40;;;11.60;99.90;;;;;;5108798;28;20207;-79
2023/05/23 10:41:48;;;;;;;6.13;4.57;;;11.70;99.90;;;;;;5107512;28;20213;-79
2023/05/23 10:44:23;;;;;;;8.90;4.67;;;11.70;99.90;;;;;;5115521;28;20236;-80
2023/05/23 10:46:52;;;;;;;8.40;4.30;;;11.90;99.90;;;;;;5115419;28;20205;-80
2023/05/23 10:49:20;;;;;;;13.60;6.87;;;11.70;99.90;;;;;;5104268;28;20206;-79
2023/05/23 10:51:51;;;;;;;12.63;6.17;;;11.50;99.90;;;;;;5100825;28;20402;-80
2023/05/23 10:54:19;;;;;;;13.10;6.43;;;11.40;99.90;;;;;;5112750;28;20221;-79
2023/05/23 10:56:46;;;;;;;13.07;6.97;;;11.50;99.90;;;;;;5114859;28;20325;-78
2023/05/23 10:59:21;;;;;;;14.17;7.27;;;11.50;99.90;;;;;;5106770;28;20718;-79
2023/05/23 11:01:51;;;;;;;16.87;7.97;;;11.60;99.90;;;;;;5115074;28;20344;-80
2023/05/23 11:04:27;;;;;;;18.83;8.37;;;11.70;99.90;;;;;;5115258;28;20584;-78
2023/05/23 11:06:55;;;;;;;15.60;7.57;;;11.70;99.90;;;;;;5114837;28;20205;-78
2023/05/23 11:09:23;;;;;;;14.67;6.07;;;11.80;99.90;;;;;;5102611;28;20194;-80
2023/05/23 11:12:01;;;;;;;14.70;6.80;;;11.80;99.90;;;;;;5104718;28;20591;-78
2023/05/23 11:14:33;;;;;;;15.80;7.33;;;11.80;99.90;;;;;;5114837;28;20226;-79
2023/05/23 11:17:00;;;;;;;16.90;7.60;;;11.80;99.90;;;;;;5114445;28;20211;-80
2023/05/23 11:19:29;;;;;;;16.63;8.40;;;11.70;99.90;;;;;;5110894;28;20198;-79
2023/05/23 11:22:01;;;;;;;17.40;8.37;;;11.80;99.90;;;;;;5103492;28;20236;-79
2023/05/23 11:24:50;;;;;;;19.33;8.73;;;11.70;99.90;;;;;;5113693;28;20216;-80
2023/05/23 11:27:19;;;;;;;16.40;8.23;;;11.80;99.90;;;;;;5113802;28;20204;-79
2023/05/23 11:29:56;;;;;;;12.90;7.20;;;11.80;99.90;;;;;;5112674;28;20652;-79
2023/05/23 11:32:23;;;;;;;17.57;7.10;;;11.70;99.90;;;;;;5101919;28;20202;-80
2023/05/23 11:34:52;;;;;;;15.67;6.67;;;11.70;99.90;;;;;;5093502;28;20216;-80
2023/05/23 11:37:19;;;;;;;17.03;6.57;;;11.70;99.90;;;;;;5111410;28;20207;-80
2023/05/23 11:39:46;;;;;;;13.10;6.00;;;11.60;99.90;;;;;;5108520;28;20250;-79
2023/05/23 11:42:13;;;;;;;14.40;6.13;;;11.60;99.90;;;;;;5111841;28;20223;-78
2023/05/23 11:44:39;;;;;;;17.13;7.60;;;11.60;99.90;;;;;;5104072;28;20231;-79
2023/05/23 11:47:07;;;;;;;14.63;7.63;;;11.70;99.90;;;;;;5111069;28;20200;-79
2023/05/23 11:49:36;;;;;;;20.07;8.33;;;11.70;99.90;;;;;;5114146;28;20253;-78
2023/05/23 11:52:06;;;;;;;17.57;8.57;;;11.70;99.90;;;;;;5113565;28;20312;-78
2023/05/23 11:54:33;;;;;;;18.97;8.40;;;11.70;99.90;;;;;;5093716;28;20213;-79
2023/05/23 11:57:00;;;;;;;19.57;7.93;;;11.80;99.90;;;;;;5109732;28;20209;-79
2023/05/23 11:59:27;;;;;;;17.83;7.80;;;11.80;99.90;;;;;;5105126;28;20318;-79
2023/05/23 12:01:54;;;;;;;15.30;7.57;;;12.00;99.90;;;;;;5105410;28;20205;-80
2023/05/23 12:04:21;;;;;;;13.97;7.50;;;12.50;99.90;;;;;;5103463;28;20225;-79
2023/05/23 12:06:49;;;;;;;17.80;8.23;;;12.50;99.90;;;;;;5107459;28;20216;-79
2023/05/23 12:09:17;;;;;;;18.17;8.60;;;12.50;99.90;;;;;;5110207;28;20204;-79
2023/05/23 12:11:45;;;;;;;17.80;6.17;;;12.30;99.90;;;;;;5103527;28;20244;-79
2023/05/23 12:14:15;;;;;;;16.93;6.73;;;11.90;99.90;;;;;;5099558;28;20229;-79
2023/05/23 12:16:44;;;;;;;15.03;7.53;;;11.80;99.90;;;;;;5102903;28;20200;-80
2023/05/23 12:19:12;;;;;;;15.37;6.03;;;11.80;99.90;;;;;;5112532;28;20624;-79
2023/05/23 12:21:46;;;;;;;16.50;7.10;;;11.70;99.90;;;;;;5107935;28;20284;-81
2023/05/23 12:24:19;;;;;;;17.23;7.40;;;11.70;99.90;;;;;;5102129;28;20221;-81
2023/05/23 12:26:50;;;;;;;13.73;6.67;;;11.80;99.90;;;;;;5113406;28;20212;-81
2023/05/23 12:29:19;;;;;;;15.10;7.80;;;12.10;99.90;;;;;;5104025;28;20201;-80
2023/05/23 12:31:49;;;;;;;16.60;7.20;;;12.50;99.90;;;;;;5100258;28;20285;-80
2023/05/23 12:34:16;;;;;;;16.50;7.63;;;12.90;99.90;;;;;;5103080;28;20216;-80
2023/05/23 12:36:44;;;;;;;13.97;8.10;;;13.10;99.90;;;;;;5101618;28;20291;-80
2023/05/23 12:39:12;;;;;;;18.13;8.23;;;13.50;99.90;;;;;;5100278;28;20216;-79
2023/05/23 12:41:43;;;;;;;19.63;8.13;;;13.80;99.90;;;;;;5105003;28;20200;-79
2023/05/23 12:44:10;;;;;;;16.27;8.37;;;14.00;99.90;;;;;;5103501;28;20221;-79
2023/05/23 12:46:37;;;;;;;11.70;6.83;;;14.10;99.90;;;;;;5099171;28;20267;-79
2023/05/23 12:49:03;;;;;;;14.07;6.03;;;14.00;99.90;;;;;;5111051;28;20666;-79
2023/05/23 12:51:30;;;;;;;16.83;6.37;;;13.90;99.90;;;;;;5095637;28;20209;-79
2023/05/23 12:53:57;;;;;;;16.67;5.90;;;13.90;99.90;;;;;;5099247;28;20221;-79
2023/05/23 12:56:24;;;;;;;15.23;4.90;;;13.80;99.90;;;;;;5101701;28;20292;-79
2023/05/23 12:58:53;;;;;;;15.13;5.17;;;13.70;99.90;;;;;;5104639;28;20657;-78
2023/05/23 13:01:21;;;;;;;11.60;5.50;;;13.60;99.90;;;;;;5107070;28;20230;-79
2023/05/23 13:03:48;;;;;;;14.37;5.97;;;13.60;99.90;;;;;;5102671;28;20228;-79
2023/05/23 13:06:14;;;;;;;14.40;6.00;;;13.70;99.90;;;;;;5103505;28;20807;-79
2023/05/23 13:08:41;;;;;;;17.93;6.73;;;13.80;99.90;;;;;;5103412;28;20201;-79
2023/05/23 13:11:11;;;;;;;12.73;6.10;;;13.80;99.90;;;;;;5096255;28;20212;-79
2023/05/23 13:13:39;;;;;;;14.83;6.97;;;13.90;99.90;;;;;;5103981;28;20220;-78
2023/05/23 13:16:08;;;;;;;18.17;7.00;;;14.10;99.90;;;;;;5110985;28;20201;-78
2023/05/23 13:18:35;;;;;;;17.97;7.10;;;14.30;99.90;;;;;;5106800;28;20219;-78